sensor_id;sensor_type;location;lat;lon;timestamp;pressure;altitude;pressure_sealevel;temperature;humidity
68859;BME280;55864;49.238;8.092;2022-08-03T00:01:00;99372.91;;;22.47;45.85
68859;BME280;55864;49.238;8.092;2022-08-03T00:03:01;99373.09;;;22.52;46.05
68859;BME280;55864;49.238;8.092;2022-08-03T00:05:01;99368.31;;;22.54;45.92
68859;BME280;55864;49.238;8.092;2022-08-03T00:07:02;99368.25;;;22.42;45.71
68859;BME280;55864;49.238;8.092;2022-08-03T00:09:03;99370.41;;;22.52;45.83
68859;BME280;55864;49.238;8.092;2022-08-03T00:11:05;99375.09;;;22.32;46.10
68859;BME280;55864;49.238;8.092;2022-08-03T00:13:06;99369.00;;;22.25;46.27
68859;BME280;55864;49.238;8.092;2022-08-03T00:15:07;99363.66;;;22.25;46.43
68859;BME280;55864;49.238;8.092;2022-08-03T00:17:08;99373.50;;;22.31;45.94
68859;BME280;55864;49.238;8.092;2022-08-03T00:19:08;99371.00;;;22.29;46.25
68859;BME280;55864;49.238;8.092;2022-08-03T00:21:09;99372.50;;;22.25;46.64
68859;BME280;55864;49.238;8.092;2022-08-03T00:23:09;99369.16;;;22.30;46.11
68859;BME280;55864;49.238;8.092;2022-08-03T00:25:10;99367.94;;;22.26;46.27
68859;BME280;55864;49.238;8.092;2022-08-03T00:27:12;99364.53;;;22.19;46.34
68859;BME280;55864;49.238;8.092;2022-08-03T00:29:12;99364.97;;;22.16;46.64
68859;BME280;55864;49.238;8.092;2022-08-03T00:31:13;99357.97;;;22.15;46.60
68859;BME280;55864;49.238;8.092;2022-08-03T00:33:14;99362.06;;;22.17;46.29
68859;BME280;55864;49.238;8.092;2022-08-03T00:35:14;99365.16;;;22.14;46.75
68859;BME280;55864;49.238;8.092;2022-08-03T00:37:15;99353.47;;;22.09;46.93
68859;BME280;55864;49.238;8.092;2022-08-03T00:39:16;99356.16;;;22.09;46.80
68859;BME280;55864;49.238;8.092;2022-08-03T00:41:16;99355.75;;;22.12;47.34
68859;BME280;55864;49.238;8.092;2022-08-03T00:43:18;99353.56;;;22.02;46.87
68859;BME280;55864;49.238;8.092;2022-08-03T00:45:21;99350.28;;;22.00;47.53
68859;BME280;55864;49.238;8.092;2022-08-03T00:47:22;99352.13;;;22.00;48.17
68859;BME280;55864;49.238;8.092;2022-08-03T00:49:22;99354.19;;;21.98;48.14
68859;BME280;55864;49.238;8.092;2022-08-03T00:51:24;99355.84;;;21.99;48.30
68859;BME280;55864;49.238;8.092;2022-08-03T00:53:24;99348.00;;;21.97;48.11
68859;BME280;55864;49.238;8.092;2022-08-03T00:55:26;99352.50;;;22.03;48.31
68859;BME280;55864;49.238;8.092;2022-08-03T00:57:29;99348.94;;;22.09;47.50
68859;BME280;55864;49.238;8.092;2022-08-03T00:59:31;99349.59;;;22.05;47.80
68859;BME280;55864;49.238;8.092;2022-08-03T01:01:32;99347.09;;;22.10;47.95
68859;BME280;55864;49.238;8.092;2022-08-03T01:03:33;99346.13;;;22.04;47.73
68859;BME280;55864;49.238;8.092;2022-08-03T01:05:43;99347.22;;;21.97;47.82
68859;BME280;55864;49.238;8.092;2022-08-03T01:07:59;99344.59;;;21.90;47.83
68859;BME280;55864;49.238;8.092;2022-08-03T01:10:05;99344.34;;;21.92;47.91
68859;BME280;55864;49.238;8.092;2022-08-03T01:12:11;99341.91;;;21.90;47.80
68859;BME280;55864;49.238;8.092;2022-08-03T01:14:18;99336.56;;;21.90;48.26
68859;BME280;55864;49.238;8.092;2022-08-03T01:16:26;99337.03;;;21.81;47.66
68859;BME280;55864;49.238;8.092;2022-08-03T01:18:33;99333.13;;;21.77;47.94
68859;BME280;55864;49.238;8.092;2022-08-03T01:20:37;99328.81;;;21.76;47.67
68859;BME280;55864;49.238;8.092;2022-08-03T01:23:12;99329.44;;;21.78;47.94
68859;BME280;55864;49.238;8.092;2022-08-03T01:25:29;99335.63;;;21.72;48.87
68859;BME280;55864;49.238;8.092;2022-08-03T01:27:45;99335.41;;;21.73;48.50
68859;BME280;55864;49.238;8.092;2022-08-03T01:30:02;99333.94;;;21.77;48.46
68859;BME280;55864;49.238;8.092;2022-08-03T01:32:12;99328.22;;;21.74;48.13
68859;BME280;55864;49.238;8.092;2022-08-03T01:34:15;99328.22;;;21.74;47.76
68859;BME280;55864;49.238;8.092;2022-08-03T01:36:21;99328.66;;;21.71;47.86
68859;BME280;55864;49.238;8.092;2022-08-03T01:38:24;99328.06;;;21.69;47.19
68859;BME280;55864;49.238;8.092;2022-08-03T01:40:27;99327.44;;;21.67;47.67
68859;BME280;55864;49.238;8.092;2022-08-03T01:42:29;99322.53;;;21.64;47.65
68859;BME280;55864;49.238;8.092;2022-08-03T01:44:35;99326.06;;;21.58;47.72
68859;BME280;55864;49.238;8.092;2022-08-03T01:46:46;99326.88;;;21.58;47.94
68859;BME280;55864;49.238;8.092;2022-08-03T01:48:49;99328.56;;;21.52;48.37
68859;BME280;55864;49.238;8.092;2022-08-03T01:50:59;99323.81;;;21.54;48.28
68859;BME280;55864;49.238;8.092;2022-08-03T01:53:01;99315.63;;;21.49;47.67
68859;BME280;55864;49.238;8.092;2022-08-03T01:55:03;99325.06;;;21.52;48.03
68859;BME280;55864;49.238;8.092;2022-08-03T01:57:05;99316.63;;;21.55;47.80
68859;BME280;55864;49.238;8.092;2022-08-03T01:59:10;99320.75;;;21.51;47.81
68859;BME280;55864;49.238;8.092;2022-08-03T02:01:12;99319.34;;;21.48;48.08
68859;BME280;55864;49.238;8.092;2022-08-03T02:03:17;99319.94;;;21.50;48.25
68859;BME280;55864;49.238;8.092;2022-08-03T02:05:18;99318.31;;;21.49;48.49
68859;BME280;55864;49.238;8.092;2022-08-03T02:07:20;99322.22;;;21.47;48.71
68859;BME280;55864;49.238;8.092;2022-08-03T02:09:22;99319.78;;;21.45;49.50
68859;BME280;55864;49.238;8.092;2022-08-03T02:11:22;99321.69;;;21.38;48.76
68859;BME280;55864;49.238;8.092;2022-08-03T02:13:24;99320.63;;;21.39;48.98
68859;BME280;55864;49.238;8.092;2022-08-03T02:15:27;99313.47;;;21.33;49.01
68859;BME280;55864;49.238;8.092;2022-08-03T02:17:28;99319.19;;;21.37;49.06
68859;BME280;55864;49.238;8.092;2022-08-03T02:19:31;99318.19;;;21.38;48.85
68859;BME280;55864;49.238;8.092;2022-08-03T02:21:35;99316.13;;;21.33;49.03
68859;BME280;55864;49.238;8.092;2022-08-03T02:23:36;99313.25;;;21.35;49.29
68859;BME280;55864;49.238;8.092;2022-08-03T02:25:40;99317.59;;;21.29;49.52
68859;BME280;55864;49.238;8.092;2022-08-03T02:27:54;99315.53;;;21.31;48.94
68859;BME280;55864;49.238;8.092;2022-08-03T02:30:01;99319.41;;;21.35;49.19
68859;BME280;55864;49.238;8.092;2022-08-03T02:32:03;99315.97;;;21.28;49.48
68859;BME280;55864;49.238;8.092;2022-08-03T02:34:07;99316.34;;;21.32;49.43
68859;BME280;55864;49.238;8.092;2022-08-03T02:36:12;99318.63;;;21.28;49.45
68859;BME280;55864;49.238;8.092;2022-08-03T02:38:15;99313.72;;;21.25;49.86
68859;BME280;55864;49.238;8.092;2022-08-03T02:40:20;99321.31;;;21.28;49.14
68859;BME280;55864;49.238;8.092;2022-08-03T02:42:23;99316.00;;;21.22;49.42
68859;BME280;55864;49.238;8.092;2022-08-03T02:44:25;99312.69;;;21.26;49.07
68859;BME280;55864;49.238;8.092;2022-08-03T02:46:30;99321.09;;;21.30;49.88
68859;BME280;55864;49.238;8.092;2022-08-03T02:48:33;99317.78;;;21.34;49.49
68859;BME280;55864;49.238;8.092;2022-08-03T02:50:37;99313.69;;;21.32;50.05
68859;BME280;55864;49.238;8.092;2022-08-03T02:52:40;99316.13;;;21.33;49.95
68859;BME280;55864;49.238;8.092;2022-08-03T02:54:45;99316.56;;;21.30;50.12
68859;BME280;55864;49.238;8.092;2022-08-03T02:56:47;99309.63;;;21.23;49.99
68859;BME280;55864;49.238;8.092;2022-08-03T02:58:48;99316.28;;;21.07;50.96
68859;BME280;55864;49.238;8.092;2022-08-03T03:00:50;99312.41;;;20.90;51.84
68859;BME280;55864;49.238;8.092;2022-08-03T03:02:52;99317.81;;;20.77;52.17
68859;BME280;55864;49.238;8.092;2022-08-03T03:04:54;99312.25;;;20.79;52.38
68859;BME280;55864;49.238;8.092;2022-08-03T03:06:56;99309.41;;;20.74;52.29
68859;BME280;55864;49.238;8.092;2022-08-03T03:08:59;99313.91;;;20.80;52.11
68859;BME280;55864;49.238;8.092;2022-08-03T03:11:00;99313.31;;;20.78;52.17
68859;BME280;55864;49.238;8.092;2022-08-03T03:13:01;99312.28;;;20.72;52.42
68859;BME280;55864;49.238;8.092;2022-08-03T03:15:03;99315.00;;;20.59;53.11
68859;BME280;55864;49.238;8.092;2022-08-03T03:17:05;99308.22;;;20.50;53.58
68859;BME280;55864;49.238;8.092;2022-08-03T03:19:06;99317.72;;;20.39;53.25
68859;BME280;55864;49.238;8.092;2022-08-03T03:21:08;99312.78;;;20.43;53.21
68859;BME280;55864;49.238;8.092;2022-08-03T03:23:09;99315.22;;;20.44;53.28
68859;BME280;55864;49.238;8.092;2022-08-03T03:25:12;99314.03;;;20.34;53.26
68859;BME280;55864;49.238;8.092;2022-08-03T03:27:15;99315.25;;;20.31;53.08
68859;BME280;55864;49.238;8.092;2022-08-03T03:29:15;99313.81;;;20.29;53.25
68859;BME280;55864;49.238;8.092;2022-08-03T03:31:16;99312.19;;;20.34;53.12
68859;BME280;55864;49.238;8.092;2022-08-03T03:33:20;99308.69;;;20.34;53.34
68859;BME280;55864;49.238;8.092;2022-08-03T03:35:21;99311.56;;;20.32;53.47
68859;BME280;55864;49.238;8.092;2022-08-03T03:37:22;99309.28;;;20.49;53.04
68859;BME280;55864;49.238;8.092;2022-08-03T03:39:24;99309.06;;;20.50;52.70
68859;BME280;55864;49.238;8.092;2022-08-03T03:41:26;99313.56;;;20.56;52.63
68859;BME280;55864;49.238;8.092;2022-08-03T03:43:26;99311.13;;;20.55;52.25
68859;BME280;55864;49.238;8.092;2022-08-03T03:45:28;99316.03;;;20.58;51.84
68859;BME280;55864;49.238;8.092;2022-08-03T03:47:30;99318.06;;;20.63;51.58
68859;BME280;55864;49.238;8.092;2022-08-03T03:49:31;99315.19;;;20.64;51.94
68859;BME280;55864;49.238;8.092;2022-08-03T03:51:32;99317.47;;;20.54;51.61
68859;BME280;55864;49.238;8.092;2022-08-03T03:53:32;99316.41;;;20.61;51.83
68859;BME280;55864;49.238;8.092;2022-08-03T03:55:33;99316.84;;;20.52;51.95
68859;BME280;55864;49.238;8.092;2022-08-03T03:57:35;99317.06;;;20.50;52.15
68859;BME280;55864;49.238;8.092;2022-08-03T03:59:36;99318.91;;;20.50;51.66
68859;BME280;55864;49.238;8.092;2022-08-03T04:01:37;99317.28;;;20.49;52.55
68859;BME280;55864;49.238;8.092;2022-08-03T04:03:38;99316.44;;;20.48;52.55
68859;BME280;55864;49.238;8.092;2022-08-03T04:05:39;99317.94;;;20.38;52.93
68859;BME280;55864;49.238;8.092;2022-08-03T04:07:45;99313.19;;;20.40;52.58
68859;BME280;55864;49.238;8.092;2022-08-03T04:09:49;99309.28;;;20.42;52.70
68859;BME280;55864;49.238;8.092;2022-08-03T04:11:51;99320.19;;;20.34;52.28
68859;BME280;55864;49.238;8.092;2022-08-03T04:13:56;99316.69;;;20.34;52.17
68859;BME280;55864;49.238;8.092;2022-08-03T04:15:58;99320.78;;;20.36;52.60
68859;BME280;55864;49.238;8.092;2022-08-03T04:18:00;99322.66;;;20.36;52.04
68859;BME280;55864;49.238;8.092;2022-08-03T04:20:03;99317.94;;;20.38;52.35
68859;BME280;55864;49.238;8.092;2022-08-03T04:22:09;99321.00;;;20.35;52.85
68859;BME280;55864;49.238;8.092;2022-08-03T04:24:12;99316.91;;;20.32;53.12
68859;BME280;55864;49.238;8.092;2022-08-03T04:26:15;99319.75;;;20.31;52.86
68859;BME280;55864;49.238;8.092;2022-08-03T04:28:18;99315.47;;;20.30;52.82
68859;BME280;55864;49.238;8.092;2022-08-03T04:30:21;99322.25;;;20.32;52.98
68859;BME280;55864;49.238;8.092;2022-08-03T04:32:24;99319.75;;;20.37;52.54
68859;BME280;55864;49.238;8.092;2022-08-03T04:34:26;99312.78;;;20.43;52.00
68859;BME280;55864;49.238;8.092;2022-08-03T04:36:30;99317.69;;;20.46;52.53
68859;BME280;55864;49.238;8.092;2022-08-03T04:38:35;99317.69;;;20.46;52.33
68859;BME280;55864;49.238;8.092;2022-08-03T04:40:39;99322.19;;;20.52;51.88
68859;BME280;55864;49.238;8.092;2022-08-03T04:42:41;99325.47;;;20.54;51.98
68859;BME280;55864;49.238;8.092;2022-08-03T04:44:43;99325.66;;;20.66;51.79
68859;BME280;55864;49.238;8.092;2022-08-03T04:46:47;99325.44;;;20.67;51.95
68859;BME280;55864;49.238;8.092;2022-08-03T04:48:47;99319.25;;;20.73;52.07
68859;BME280;55864;49.238;8.092;2022-08-03T04:50:48;99322.97;;;20.72;51.77
68859;BME280;55864;49.238;8.092;2022-08-03T04:52:49;99324.59;;;20.73;51.65
68859;BME280;55864;49.238;8.092;2022-08-03T04:54:50;99323.75;;;20.79;51.77
68859;BME280;55864;49.238;8.092;2022-08-03T04:56:50;99328.72;;;20.76;51.99
68859;BME280;55864;49.238;8.092;2022-08-03T04:58:51;99335.47;;;20.78;52.10
68859;BME280;55864;49.238;8.092;2022-08-03T05:00:52;99326.84;;;20.76;52.23
68859;BME280;55864;49.238;8.092;2022-08-03T05:02:54;99334.00;;;20.82;52.42
68859;BME280;55864;49.238;8.092;2022-08-03T05:04:54;99335.28;;;20.80;52.80
68859;BME280;55864;49.238;8.092;2022-08-03T05:06:55;99338.13;;;20.85;52.27
68859;BME280;55864;49.238;8.092;2022-08-03T05:08:56;99336.63;;;20.95;52.18
68859;BME280;55864;49.238;8.092;2022-08-03T05:10:56;99332.72;;;20.98;52.28
68859;BME280;55864;49.238;8.092;2022-08-03T05:12:57;99333.94;;;21.08;51.91
68859;BME280;55864;49.238;8.092;2022-08-03T05:14:57;99339.09;;;21.10;51.73
68859;BME280;55864;49.238;8.092;2022-08-03T05:16:58;99341.31;;;21.19;51.62
68859;BME280;55864;49.238;8.092;2022-08-03T05:19:00;99339.63;;;21.25;51.48
68859;BME280;55864;49.238;8.092;2022-08-03T05:21:00;99344.13;;;21.31;50.96
68859;BME280;55864;49.238;8.092;2022-08-03T05:23:01;99342.88;;;21.33;50.94
68859;BME280;55864;49.238;8.092;2022-08-03T05:25:01;99339.94;;;21.41;51.27
68859;BME280;55864;49.238;8.092;2022-08-03T05:27:02;99342.16;;;21.51;51.70
68859;BME280;55864;49.238;8.092;2022-08-03T05:29:03;99357.13;;;21.59;50.65
68859;BME280;55864;49.238;8.092;2022-08-03T05:31:03;99352.53;;;21.66;51.16
68859;BME280;55864;49.238;8.092;2022-08-03T05:33:04;99349.63;;;21.74;50.41
68859;BME280;55864;49.238;8.092;2022-08-03T05:35:07;99354.13;;;21.80;50.95
68859;BME280;55864;49.238;8.092;2022-08-03T05:37:08;99349.16;;;21.83;51.49
68859;BME280;55864;49.238;8.092;2022-08-03T05:39:08;99353.66;;;21.89;50.77
68859;BME280;55864;49.238;8.092;2022-08-03T05:41:09;99356.22;;;22.02;50.45
68859;BME280;55864;49.238;8.092;2022-08-03T05:43:09;99354.75;;;22.06;49.91
68859;BME280;55864;49.238;8.092;2022-08-03T05:45:11;99354.91;;;22.11;50.73
68859;BME280;55864;49.238;8.092;2022-08-03T05:47:11;99360.38;;;22.23;50.55
68859;BME280;55864;49.238;8.092;2022-08-03T05:49:12;99354.56;;;22.26;50.27
68859;BME280;55864;49.238;8.092;2022-08-03T05:51:14;99361.22;;;22.41;48.53
68859;BME280;55864;49.238;8.092;2022-08-03T05:53:14;99346.75;;;22.49;49.11
68859;BME280;55864;49.238;8.092;2022-08-03T05:55:15;99356.16;;;22.58;49.75
68859;BME280;55864;49.238;8.092;2022-08-03T05:57:15;99356.75;;;22.60;49.01
68859;BME280;55864;49.238;8.092;2022-08-03T05:59:16;99354.09;;;22.78;47.85
68859;BME280;55864;49.238;8.092;2022-08-03T06:01:17;99355.44;;;22.87;47.84
68859;BME280;55864;49.238;8.092;2022-08-03T06:03:18;99358.69;;;22.89;47.41
68859;BME280;55864;49.238;8.092;2022-08-03T06:05:18;99353.41;;;23.01;45.92
68859;BME280;55864;49.238;8.092;2022-08-03T06:07:20;99354.75;;;23.10;45.75
68859;BME280;55864;49.238;8.092;2022-08-03T06:09:21;99351.59;;;23.13;46.07
68859;BME280;55864;49.238;8.092;2022-08-03T06:11:22;99356.00;;;23.25;45.18
68859;BME280;55864;49.238;8.092;2022-08-03T06:13:22;99352.03;;;23.28;45.40
68859;BME280;55864;49.238;8.092;2022-08-03T06:15:23;99348.53;;;23.27;45.73
68859;BME280;55864;49.238;8.092;2022-08-03T06:17:24;99348.25;;;23.35;44.82
68859;BME280;55864;49.238;8.092;2022-08-03T06:19:24;99353.28;;;23.44;45.32
68859;BME280;55864;49.238;8.092;2022-08-03T06:21:25;99355.38;;;23.42;44.94
68859;BME280;55864;49.238;8.092;2022-08-03T06:23:27;99353.34;;;23.55;44.33
68859;BME280;55864;49.238;8.092;2022-08-03T06:25:27;99353.03;;;23.63;44.29
68859;BME280;55864;49.238;8.092;2022-08-03T06:27:28;99355.50;;;23.76;44.21
68859;BME280;55864;49.238;8.092;2022-08-03T06:29:28;99345.34;;;23.67;44.64
68859;BME280;55864;49.238;8.092;2022-08-03T06:31:29;99345.94;;;23.69;44.35
68859;BME280;55864;49.238;8.092;2022-08-03T06:33:30;99348.41;;;23.82;42.86
68859;BME280;55864;49.238;8.092;2022-08-03T06:35:30;99348.16;;;23.83;43.16
68859;BME280;55864;49.238;8.092;2022-08-03T06:37:31;99353.31;;;23.85;44.54
68859;BME280;55864;49.238;8.092;2022-08-03T06:39:33;99354.03;;;23.92;43.15
68859;BME280;55864;49.238;8.092;2022-08-03T06:41:33;99349.13;;;24.00;42.44
68859;BME280;55864;49.238;8.092;2022-08-03T06:43:34;99351.03;;;24.11;42.71
68859;BME280;55864;49.238;8.092;2022-08-03T06:45:35;99352.13;;;24.22;41.45
68859;BME280;55864;49.238;8.092;2022-08-03T06:47:35;99351.78;;;24.18;41.60
68859;BME280;55864;49.238;8.092;2022-08-03T06:49:36;99352.47;;;24.25;42.14
68859;BME280;55864;49.238;8.092;2022-08-03T06:51:36;99360.97;;;24.34;41.08
68859;BME280;55864;49.238;8.092;2022-08-03T06:53:37;99357.84;;;24.49;41.17
68859;BME280;55864;49.238;8.092;2022-08-03T06:55:39;99362.16;;;24.61;40.47
68859;BME280;55864;49.238;8.092;2022-08-03T06:57:39;99366.38;;;24.57;40.45
68859;BME280;55864;49.238;8.092;2022-08-03T06:59:40;99360.75;;;24.47;39.98
68859;BME280;55864;49.238;8.092;2022-08-03T07:01:40;99360.31;;;24.50;40.26
68859;BME280;55864;49.238;8.092;2022-08-03T07:03:41;99367.88;;;24.53;39.29
68859;BME280;55864;49.238;8.092;2022-08-03T07:05:42;99367.53;;;24.61;38.88
68859;BME280;55864;49.238;8.092;2022-08-03T07:07:43;99361.13;;;24.74;38.73
68859;BME280;55864;49.238;8.092;2022-08-03T07:09:43;99364.63;;;24.74;39.23
68859;BME280;55864;49.238;8.092;2022-08-03T07:11:45;99364.38;;;24.76;39.24
68859;BME280;55864;49.238;8.092;2022-08-03T07:13:46;99367.88;;;24.88;39.72
68859;BME280;55864;49.238;8.092;2022-08-03T07:15:46;99369.38;;;24.95;40.43
68859;BME280;55864;49.238;8.092;2022-08-03T07:17:47;99365.88;;;24.95;39.81
68859;BME280;55864;49.238;8.092;2022-08-03T07:19:48;99362.13;;;25.07;39.50
68859;BME280;55864;49.238;8.092;2022-08-03T07:21:48;99359.81;;;24.99;39.80
68859;BME280;55864;49.238;8.092;2022-08-03T07:23:49;99364.94;;;25.01;39.38
68859;BME280;55864;49.238;8.092;2022-08-03T07:25:49;99366.38;;;25.32;38.76
68859;BME280;55864;49.238;8.092;2022-08-03T07:27:51;99360.41;;;25.41;37.57
68859;BME280;55864;49.238;8.092;2022-08-03T07:29:52;99364.25;;;25.34;37.94
68859;BME280;55864;49.238;8.092;2022-08-03T07:31:52;99363.56;;;25.27;38.02
68859;BME280;55864;49.238;8.092;2022-08-03T07:33:53;99364.63;;;25.26;38.35
68859;BME280;55864;49.238;8.092;2022-08-03T07:35:53;99362.38;;;25.34;38.16
68859;BME280;55864;49.238;8.092;2022-08-03T07:37:54;99361.91;;;25.37;38.38
68859;BME280;55864;49.238;8.092;2022-08-03T07:39:54;99368.03;;;25.61;37.79
68859;BME280;55864;49.238;8.092;2022-08-03T07:41:55;99366.91;;;25.57;38.85
68859;BME280;55864;49.238;8.092;2022-08-03T07:43:57;99370.72;;;25.61;38.06
68859;BME280;55864;49.238;8.092;2022-08-03T07:45:58;99365.53;;;25.71;38.01
68859;BME280;55864;49.238;8.092;2022-08-03T07:47:58;99366.97;;;25.62;38.33
68859;BME280;55864;49.238;8.092;2022-08-03T07:49:59;99369.56;;;25.85;37.85
68859;BME280;55864;49.238;8.092;2022-08-03T07:52:00;99369.06;;;25.88;38.75
68859;BME280;55864;49.238;8.092;2022-08-03T07:54:00;99377.53;;;25.80;38.78
68859;BME280;55864;49.238;8.092;2022-08-03T07:56:01;99373.16;;;25.90;38.36
68859;BME280;55864;49.238;8.092;2022-08-03T07:58:04;99368.66;;;25.96;38.37
68859;BME280;55864;49.238;8.092;2022-08-03T08:00:12;99364.13;;;26.13;37.53
68859;BME280;55864;49.238;8.092;2022-08-03T08:02:13;99362.28;;;26.14;37.73
68859;BME280;55864;49.238;8.092;2022-08-03T08:04:42;99370.81;;;26.27;37.11
68859;BME280;55864;49.238;8.092;2022-08-03T08:06:43;99367.97;;;26.34;37.55
68859;BME280;55864;49.238;8.092;2022-08-03T08:08:44;99373.53;;;26.44;36.97
68859;BME280;55864;49.238;8.092;2022-08-03T08:10:44;99365.75;;;26.47;37.00
68859;BME280;55864;49.238;8.092;2022-08-03T08:12:45;99367.25;;;26.38;36.92
68859;BME280;55864;49.238;8.092;2022-08-03T08:14:45;99361.81;;;26.55;36.84
68859;BME280;55864;49.238;8.092;2022-08-03T08:16:47;99365.47;;;26.65;36.76
68859;BME280;55864;49.238;8.092;2022-08-03T08:18:48;99364.84;;;26.58;36.82
68859;BME280;55864;49.238;8.092;2022-08-03T08:20:49;99375.03;;;26.73;36.80
68859;BME280;55864;49.238;8.092;2022-08-03T08:22:50;99363.34;;;27.06;36.23
68859;BME280;55864;49.238;8.092;2022-08-03T08:24:50;99358.25;;;27.31;35.19
68859;BME280;55864;49.238;8.092;2022-08-03T08:26:51;99362.16;;;27.40;35.35
68859;BME280;55864;49.238;8.092;2022-08-03T08:28:51;99353.22;;;27.61;35.10
68859;BME280;55864;49.238;8.092;2022-08-03T08:30:52;99362.44;;;27.65;34.84
68859;BME280;55864;49.238;8.092;2022-08-03T08:32:54;99363.94;;;27.56;35.08
68859;BME280;55864;49.238;8.092;2022-08-03T08:34:54;99364.03;;;27.92;34.48
68859;BME280;55864;49.238;8.092;2022-08-03T08:36:55;99360.22;;;28.15;34.11
68859;BME280;55864;49.238;8.092;2022-08-03T08:38:55;99357.03;;;28.23;34.32
68859;BME280;55864;49.238;8.092;2022-08-03T08:40:56;99354.59;;;28.58;33.59
68859;BME280;55864;49.238;8.092;2022-08-03T08:42:56;99359.53;;;28.66;33.09
68859;BME280;55864;49.238;8.092;2022-08-03T08:44:57;99365.22;;;28.65;33.60
68859;BME280;55864;49.238;8.092;2022-08-03T08:47:01;99357.59;;;28.62;33.33
68859;BME280;55864;49.238;8.092;2022-08-03T08:49:04;99356.88;;;28.76;33.85
68859;BME280;55864;49.238;8.092;2022-08-03T08:51:07;99356.22;;;29.06;33.57
68859;BME280;55864;49.238;8.092;2022-08-03T08:53:10;99356.56;;;29.20;33.42
68859;BME280;55864;49.238;8.092;2022-08-03T08:55:14;99353.91;;;29.35;33.25
68859;BME280;55864;49.238;8.092;2022-08-03T08:57:17;99351.00;;;29.61;32.97
68859;BME280;55864;49.238;8.092;2022-08-03T08:59:19;99359.41;;;29.65;32.74
68859;BME280;55864;49.238;8.092;2022-08-03T09:01:20;99355.09;;;29.74;32.59
68859;BME280;55864;49.238;8.092;2022-08-03T09:03:21;99354.88;;;29.96;31.94
68859;BME280;55864;49.238;8.092;2022-08-03T09:05:23;99352.72;;;30.28;31.57
68859;BME280;55864;49.238;8.092;2022-08-03T09:07:24;99349.69;;;30.09;31.30
68859;BME280;55864;49.238;8.092;2022-08-03T09:09:24;99349.69;;;30.59;31.11
68859;BME280;55864;49.238;8.092;2022-08-03T09:11:25;99360.19;;;30.81;30.48
68859;BME280;55864;49.238;8.092;2022-08-03T09:13:27;99350.66;;;31.04;29.27
68859;BME280;55864;49.238;8.092;2022-08-03T09:15:29;99353.00;;;31.25;29.08
68859;BME280;55864;49.238;8.092;2022-08-03T09:17:38;99355.19;;;31.23;29.42
68859;BME280;55864;49.238;8.092;2022-08-03T09:19:39;99357.50;;;31.50;29.50
68859;BME280;55864;49.238;8.092;2022-08-03T09:21:41;99355.56;;;31.61;29.03
68859;BME280;55864;49.238;8.092;2022-08-03T09:23:46;99345.03;;;31.88;28.86
68859;BME280;55864;49.238;8.092;2022-08-03T09:25:47;99343.63;;;31.95;28.79
68859;BME280;55864;49.238;8.092;2022-08-03T09:28:04;99351.00;;;32.23;28.23
68859;BME280;55864;49.238;8.092;2022-08-03T09:30:11;99346.84;;;32.02;27.65
68859;BME280;55864;49.238;8.092;2022-08-03T09:32:13;99347.09;;;32.34;27.65
68859;BME280;55864;49.238;8.092;2022-08-03T09:34:15;99346.84;;;32.65;27.05
68859;BME280;55864;49.238;8.092;2022-08-03T09:36:44;99346.69;;;32.80;26.05
68859;BME280;55864;49.238;8.092;2022-08-03T09:39:00;99344.84;;;32.94;25.47
68859;BME280;55864;49.238;8.092;2022-08-03T09:41:00;99347.06;;;32.97;25.46
68859;BME280;55864;49.238;8.092;2022-08-03T09:43:01;99338.97;;;32.87;25.30
68859;BME280;55864;49.238;8.092;2022-08-03T09:45:01;99341.22;;;32.80;25.76
68859;BME280;55864;49.238;8.092;2022-08-03T09:47:03;99343.03;;;32.89;25.72
68859;BME280;55864;49.238;8.092;2022-08-03T09:49:10;99343.44;;;33.01;26.32
68859;BME280;55864;49.238;8.092;2022-08-03T09:51:11;99339.28;;;33.27;25.11
68859;BME280;55864;49.238;8.092;2022-08-03T09:53:13;99336.38;;;33.00;25.29
68859;BME280;55864;49.238;8.092;2022-08-03T09:55:14;99343.41;;;33.25;25.71
68859;BME280;55864;49.238;8.092;2022-08-03T09:57:21;99341.44;;;33.31;25.70
68859;BME280;55864;49.238;8.092;2022-08-03T09:59:23;99346.91;;;33.07;25.77
68859;BME280;55864;49.238;8.092;2022-08-03T10:01:31;99339.44;;;33.36;25.22
68859;BME280;55864;49.238;8.092;2022-08-03T10:03:34;99337.53;;;33.37;25.35
68859;BME280;55864;49.238;8.092;2022-08-03T10:05:35;99334.50;;;33.19;26.01
68859;BME280;55864;49.238;8.092;2022-08-03T10:07:42;99340.84;;;33.34;25.72
68859;BME280;55864;49.238;8.092;2022-08-03T10:09:52;99335.13;;;33.72;25.18
68859;BME280;55864;49.238;8.092;2022-08-03T10:11:53;99332.97;;;34.06;25.11
68859;BME280;55864;49.238;8.092;2022-08-03T10:13:54;99335.78;;;33.83;25.67
68859;BME280;55864;49.238;8.092;2022-08-03T10:15:55;99337.88;;;34.23;24.76
68859;BME280;55864;49.238;8.092;2022-08-03T10:17:55;99331.13;;;34.02;25.07
68859;BME280;55864;49.238;8.092;2022-08-03T10:19:56;99327.53;;;33.69;25.40
68859;BME280;55864;49.238;8.092;2022-08-03T10:22:02;99328.84;;;34.23;24.98
68859;BME280;55864;49.238;8.092;2022-08-03T10:24:04;99324.69;;;34.11;25.01
68859;BME280;55864;49.238;8.092;2022-08-03T10:26:06;99325.72;;;34.48;24.29
68859;BME280;55864;49.238;8.092;2022-08-03T10:28:12;99321.56;;;34.04;24.95
68859;BME280;55864;49.238;8.092;2022-08-03T10:30:14;99316.72;;;34.47;25.02
68859;BME280;55864;49.238;8.092;2022-08-03T10:32:20;99325.59;;;34.53;24.94
68859;BME280;55864;49.238;8.092;2022-08-03T10:34:23;99323.13;;;34.38;24.63
68859;BME280;55864;49.238;8.092;2022-08-03T10:36:26;99312.38;;;34.46;24.67
68859;BME280;55864;49.238;8.092;2022-08-03T10:38:34;99311.69;;;34.22;25.02
68859;BME280;55864;49.238;8.092;2022-08-03T10:40:40;99308.41;;;34.39;25.17
68859;BME280;55864;49.238;8.092;2022-08-03T10:42:42;99302.84;;;34.44;25.15
68859;BME280;55864;49.238;8.092;2022-08-03T10:44:43;99309.41;;;34.43;24.89
68859;BME280;55864;49.238;8.092;2022-08-03T10:46:46;99302.94;;;34.52;24.87
68859;BME280;55864;49.238;8.092;2022-08-03T10:48:46;99295.91;;;34.51;25.22